createdAt,value
2023-10-05T00:01:37.967Z,98116.50
2023-10-05T00:04:23.251Z,98127.69
2023-10-05T00:07:08.767Z,98125.78
2023-10-05T00:09:54.287Z,98132.34
2023-10-05T00:12:39.651Z,98134.56
2023-10-05T00:15:25.350Z,98136.13
2023-10-05T00:18:10.236Z,98136.41
2023-10-05T00:20:55.798Z,98135.28
2023-10-05T00:23:41.285Z,98140.28
2023-10-05T00:26:26.990Z,98134.88
2023-10-05T00:29:12.112Z,98138.75
2023-10-05T00:31:57.627Z,98139.38
2023-10-05T00:34:42.912Z,98129.56
2023-10-05T00:37:28.156Z,98134.50
2023-10-05T00:40:13.860Z,98139.53
2023-10-05T00:42:59.178Z,98144.44
2023-10-05T00:45:44.715Z,98146.72
2023-10-05T00:48:29.994Z,98133.44
2023-10-05T00:51:14.957Z,98141.59
2023-10-05T00:54:00.271Z,98134.50
2023-10-05T00:56:45.778Z,98136.22
2023-10-05T00:59:31.410Z,98129.63
2023-10-05T01:02:17.236Z,98125.41
2023-10-05T01:05:02.524Z,98114.41
2023-10-05T01:07:48.252Z,98117.22
2023-10-05T01:10:33.948Z,98117.16
2023-10-05T01:13:19.286Z,98117.31
2023-10-05T01:16:04.806Z,98107.84
2023-10-05T01:18:50.100Z,98116.25
2023-10-05T01:21:35.474Z,98114.19
2023-10-05T01:24:20.892Z,98107.41
2023-10-05T01:27:06.316Z,98108.22
2023-10-05T01:29:51.762Z,98102.66
2023-10-05T01:32:37.398Z,98098.97
2023-10-05T01:35:22.884Z,98093.81
2023-10-05T01:38:08.177Z,98090.00
2023-10-05T01:40:53.866Z,98087.59
2023-10-05T01:43:39.270Z,98096.97
2023-10-05T01:46:24.852Z,98088.13
2023-10-05T01:49:10.402Z,98089.34
2023-10-05T01:51:55.794Z,98091.16
2023-10-05T01:54:41.381Z,98085.56
2023-10-05T01:57:26.810Z,98082.47
2023-10-05T02:00:11.984Z,98074.38
2023-10-05T02:02:57.586Z,98076.50
2023-10-05T02:05:43.208Z,98087.88
2023-10-05T02:08:28.383Z,98079.28
2023-10-05T02:11:13.698Z,98079.88
2023-10-05T02:13:58.685Z,98079.53
2023-10-05T02:16:43.830Z,98074.13
2023-10-05T02:19:29.202Z,98068.25
2023-10-05T02:22:14.782Z,98065.22
2023-10-05T02:25:00.155Z,98062.84
2023-10-05T02:27:45.647Z,98060.63
2023-10-05T02:30:30.640Z,98064.00
2023-10-05T02:33:15.685Z,98067.66
2023-10-05T02:36:00.913Z,98064.41
2023-10-05T02:38:46.373Z,98057.03
2023-10-05T02:41:31.277Z,98057.16
2023-10-05T02:44:16.140Z,98064.25
2023-10-05T02:47:01.684Z,98061.16
2023-10-05T02:49:47.023Z,98063.53
2023-10-05T02:52:31.991Z,98056.88
2023-10-05T02:55:17.064Z,98050.69
2023-10-05T02:58:02.575Z,98048.47
2023-10-05T03:00:48.268Z,98049.28
2023-10-05T03:03:33.611Z,98058.41
2023-10-05T03:06:18.668Z,98054.41
2023-10-05T03:09:04.417Z,98051.59
2023-10-05T03:11:49.789Z,98055.81
2023-10-05T03:14:34.886Z,98057.28
2023-10-05T03:17:19.769Z,98058.34
2023-10-05T03:20:05.180Z,98047.19
2023-10-05T03:22:50.634Z,98050.00
2023-10-05T03:25:36.193Z,98057.38
2023-10-05T03:28:21.687Z,98056.66
2023-10-05T03:31:07.361Z,98065.31
2023-10-05T03:33:52.817Z,98062.03
2023-10-05T03:36:38.162Z,98071.41
2023-10-05T03:39:23.680Z,98070.47
2023-10-05T03:42:09.267Z,98074.59
2023-10-05T03:44:54.185Z,98066.69
2023-10-05T03:47:39.794Z,98064.34
2023-10-05T03:50:25.352Z,98056.44
2023-10-05T03:53:10.463Z,98045.84
2023-10-05T03:55:55.380Z,98058.97
2023-10-05T03:58:40.923Z,98060.78
2023-10-05T04:01:26.552Z,98074.53
2023-10-05T04:04:11.987Z,98070.47
2023-10-05T04:06:57.570Z,98072.56
2023-10-05T04:09:42.851Z,98070.75
2023-10-05T04:12:28.377Z,98059.00
2023-10-05T04:15:13.366Z,98067.25
2023-10-05T04:17:58.852Z,98063.44
2023-10-05T04:20:44.297Z,98057.94
2023-10-05T04:23:29.380Z,98057.94
2023-10-05T04:26:14.737Z,98065.00
2023-10-05T04:28:59.774Z,98078.91
2023-10-05T04:31:45.232Z,98078.06
2023-10-05T04:34:30.383Z,98087.94
2023-10-05T04:37:15.886Z,98093.31
2023-10-05T04:40:01.413Z,98085.66
2023-10-05T04:42:46.777Z,98094.97
2023-10-05T04:45:31.800Z,98095.81
2023-10-05T04:48:17.369Z,98101.59
2023-10-05T04:51:02.957Z,98100.84
2023-10-05T04:53:48.327Z,98092.88
2023-10-05T04:56:33.853Z,98102.66
2023-10-05T04:59:18.839Z,98095.50
2023-10-05T05:02:04.326Z,98093.47
2023-10-05T05:04:49.892Z,98090.44
2023-10-05T05:07:35.492Z,98081.53
2023-10-05T05:10:20.863Z,98086.22
2023-10-05T05:13:06.501Z,98081.31
2023-10-05T05:15:51.876Z,98076.84
2023-10-05T05:18:36.917Z,98076.81
2023-10-05T05:21:22.430Z,98080.59
2023-10-05T05:24:07.427Z,98085.72
2023-10-05T05:26:52.619Z,98092.63
2023-10-05T05:29:38.045Z,98092.31
2023-10-05T05:32:23.071Z,98107.84
2023-10-05T05:35:08.588Z,98095.59
2023-10-05T05:37:53.584Z,98084.97
2023-10-05T05:40:39.030Z,98100.31
2023-10-05T05:43:24.478Z,98102.41
2023-10-05T05:46:09.987Z,98104.41
2023-10-05T05:48:55.354Z,98100.81
2023-10-05T05:51:40.965Z,98099.69
2023-10-05T05:54:25.968Z,98102.28
2023-10-05T05:57:11.456Z,98101.00
2023-10-05T05:59:56.996Z,98097.03
2023-10-05T06:02:42.345Z,98096.69
2023-10-05T06:05:27.678Z,98101.78
2023-10-05T06:08:13.224Z,98103.00
2023-10-05T06:10:58.439Z,98091.69
2023-10-05T06:13:44.086Z,98103.31
2023-10-05T06:16:29.560Z,98099.47
2023-10-05T06:19:15.179Z,98098.41
2023-10-05T06:22:00.296Z,98098.31
2023-10-05T06:24:45.754Z,98100.09
2023-10-05T06:27:31.398Z,98109.25
2023-10-05T06:30:16.351Z,98110.13
2023-10-05T06:33:01.882Z,98103.78
2023-10-05T06:35:47.362Z,98098.94
2023-10-05T06:38:32.667Z,98104.25
2023-10-05T06:41:18.277Z,98114.19
2023-10-05T06:44:03.797Z,98111.81
2023-10-05T06:46:48.818Z,98124.13
2023-10-05T06:49:34.174Z,98118.19
2023-10-05T06:52:19.538Z,98123.06
2023-10-05T06:55:05.122Z,98124.25
2023-10-05T06:57:50.564Z,98123.06
2023-10-05T07:00:36.249Z,98126.16
2023-10-05T07:03:21.784Z,98122.00
2023-10-05T07:06:07.197Z,98136.47
2023-10-05T07:08:52.765Z,98143.59
2023-10-05T07:11:38.271Z,98153.84
2023-10-05T07:14:26.158Z,98147.47
2023-10-05T07:17:11.833Z,98149.31
2023-10-05T07:19:57.400Z,98148.31
2023-10-05T07:22:42.894Z,98158.03
2023-10-05T07:25:28.237Z,98149.09
2023-10-05T07:28:13.848Z,98164.22
2023-10-05T07:30:59.470Z,98162.78
2023-10-05T07:33:45.047Z,98171.69
2023-10-05T07:36:30.521Z,98170.25
2023-10-05T07:39:15.954Z,98167.03
2023-10-05T07:42:01.569Z,98165.81
2023-10-05T07:44:46.927Z,98169.00
2023-10-05T07:47:32.569Z,98173.56
2023-10-05T07:50:17.545Z,98171.91
2023-10-05T07:53:03.027Z,98176.47
2023-10-05T07:55:48.077Z,98177.00
2023-10-05T07:58:33.448Z,98179.69
2023-10-05T08:01:18.962Z,98177.66
2023-10-05T08:04:04.457Z,98184.63
2023-10-05T08:06:49.711Z,98186.66
2023-10-05T08:09:35.244Z,98187.47
2023-10-05T08:12:20.636Z,98195.31
2023-10-05T08:15:06.233Z,98188.31
2023-10-05T08:17:51.489Z,98193.81
2023-10-05T08:20:37.266Z,98186.00
2023-10-05T08:23:24.061Z,98190.00
2023-10-05T08:26:09.380Z,98188.22
2023-10-05T08:28:54.888Z,98190.34
2023-10-05T08:31:40.390Z,98189.28
2023-10-05T08:34:25.943Z,98190.28
2023-10-05T08:37:11.324Z,98184.16
2023-10-05T08:39:56.795Z,98181.22
2023-10-05T08:42:42.318Z,98181.66
2023-10-05T08:45:27.615Z,98189.78
2023-10-05T08:48:13.197Z,98195.91
2023-10-05T08:50:58.833Z,98190.16
2023-10-05T08:53:43.740Z,98191.34
2023-10-05T08:56:29.277Z,98199.41
2023-10-05T08:59:14.695Z,98209.38
2023-10-05T09:01:59.803Z,98217.88
2023-10-05T09:04:45.117Z,98220.47
2023-10-05T09:07:30.663Z,98218.53
2023-10-05T09:10:16.326Z,98212.91
2023-10-05T09:13:01.823Z,98203.53
2023-10-05T09:15:47.391Z,98208.63
2023-10-05T09:18:34.612Z,98212.97
2023-10-05T09:21:19.910Z,98218.13
2023-10-05T09:24:05.764Z,98214.44
2023-10-05T09:26:51.491Z,98216.03
2023-10-05T09:29:37.148Z,98219.53
2023-10-05T09:32:22.609Z,98213.47
2023-10-05T09:35:11.961Z,98203.22
2023-10-05T09:37:58.363Z,98195.03
2023-10-05T09:40:43.979Z,98198.28
2023-10-05T09:43:29.276Z,98195.47
2023-10-05T09:46:14.876Z,98187.53
2023-10-05T09:49:00.112Z,98196.03
2023-10-05T09:51:45.679Z,98188.19
2023-10-05T09:54:31.177Z,98200.63
2023-10-05T09:57:16.656Z,98196.25
2023-10-05T10:00:02.146Z,98204.59
2023-10-05T10:02:47.607Z,98198.34
2023-10-05T10:05:32.804Z,98196.00
2023-10-05T10:08:18.229Z,98186.16
2023-10-05T10:11:03.839Z,98186.94
2023-10-05T10:13:49.302Z,98178.06
2023-10-05T10:16:34.976Z,98172.13
2023-10-05T10:19:20.593Z,98177.66
2023-10-05T10:22:05.943Z,98180.16
2023-10-05T10:24:52.495Z,98178.88
2023-10-05T10:27:38.085Z,98170.75
2023-10-05T10:30:23.572Z,98168.28
2023-10-05T10:33:08.948Z,98168.03
2023-10-05T10:35:54.521Z,98160.78
2023-10-05T10:38:39.457Z,98158.28
2023-10-05T10:41:24.493Z,98150.16
2023-10-05T10:44:09.853Z,98158.44
2023-10-05T10:46:55.481Z,98155.56
2023-10-05T10:49:40.716Z,98162.63
2023-10-05T10:52:32.703Z,98161.41
2023-10-05T10:55:19.112Z,98162.63
2023-10-05T10:58:04.580Z,98156.91
2023-10-05T11:00:49.900Z,98161.16
2023-10-05T11:03:35.749Z,98151.47
2023-10-05T11:06:20.970Z,98147.50
2023-10-05T11:09:06.716Z,98142.63
2023-10-05T11:11:52.467Z,98139.16
2023-10-05T11:14:37.839Z,98160.03
2023-10-05T11:17:23.034Z,98150.72
2023-10-05T11:20:08.660Z,98152.63
2023-10-05T11:22:54.085Z,98151.56
2023-10-05T11:25:40.682Z,98150.00
2023-10-05T11:28:26.190Z,98143.41
2023-10-05T11:31:14.796Z,98138.44
2023-10-05T11:35:15.557Z,98130.34
2023-10-05T11:37:22.263Z,98136.06
2023-10-05T11:40:07.863Z,98135.34
2023-10-05T11:42:53.385Z,98127.38
2023-10-05T11:45:38.832Z,98126.94
2023-10-05T11:48:24.318Z,98134.00
2023-10-05T11:51:09.709Z,98135.88
2023-10-05T11:53:55.221Z,98124.69
2023-10-05T11:56:40.365Z,98128.03
2023-10-05T11:59:25.872Z,98124.84
2023-10-05T12:02:11.631Z,98118.16
2023-10-05T12:04:57.203Z,98107.59
2023-10-05T12:07:42.356Z,98109.53
2023-10-05T12:10:27.896Z,98096.00
2023-10-05T12:13:13.520Z,98085.19
2023-10-05T12:15:58.999Z,98088.09
2023-10-05T12:18:44.358Z,98078.16
2023-10-05T12:21:29.954Z,98077.53
2023-10-05T12:24:15.468Z,98080.03
2023-10-05T12:27:01.713Z,98072.75
2023-10-05T12:29:48.511Z,98072.31
2023-10-05T12:32:33.987Z,98071.03
2023-10-05T12:35:19.557Z,98064.50
2023-10-05T12:38:05.145Z,98070.88
2023-10-05T12:40:50.717Z,98062.88
2023-10-05T12:43:36.237Z,98065.75
2023-10-05T12:46:21.414Z,98071.19
2023-10-05T12:49:06.933Z,98081.56
2023-10-05T12:51:52.464Z,98069.47
2023-10-05T12:54:37.827Z,98061.91
2023-10-05T12:57:23.362Z,98066.25
2023-10-05T13:00:08.762Z,98071.66
2023-10-05T13:02:54.024Z,98063.34
2023-10-05T13:05:39.518Z,98062.88
2023-10-05T13:08:25.103Z,98064.13
2023-10-05T13:11:10.239Z,98063.81
2023-10-05T13:13:55.693Z,98058.38
2023-10-05T13:16:41.364Z,98052.03
2023-10-05T13:19:26.746Z,98048.19
2023-10-05T13:22:12.286Z,98045.47
2023-10-05T13:24:57.839Z,98030.25
2023-10-05T13:27:43.248Z,98041.19
2023-10-05T13:30:28.656Z,98038.06
2023-10-05T13:33:14.060Z,98038.16
2023-10-05T13:35:59.613Z,98047.69
2023-10-05T13:38:45.145Z,98046.25
2023-10-05T13:41:30.039Z,98048.97
2023-10-05T13:44:15.619Z,98042.22
2023-10-05T13:47:03.131Z,98029.22
2023-10-05T13:49:49.033Z,98028.56
2023-10-05T13:52:34.680Z,98030.19
2023-10-05T13:55:20.109Z,98032.75
2023-10-05T13:58:05.847Z,98036.63
2023-10-05T14:00:51.570Z,98030.28
2023-10-05T14:03:37.205Z,98029.78
2023-10-05T14:06:22.700Z,98019.22
2023-10-05T14:09:08.319Z,98022.81
2023-10-05T14:11:53.812Z,98030.56
2023-10-05T14:14:39.332Z,98031.31
2023-10-05T14:17:24.905Z,98028.81
2023-10-05T14:20:10.524Z,98018.81
2023-10-05T14:22:55.993Z,98011.59
2023-10-05T14:25:41.427Z,98011.59
2023-10-05T14:28:26.938Z,98009.19
2023-10-05T14:31:12.410Z,98002.50
2023-10-05T14:33:57.812Z,97996.06
2023-10-05T14:36:43.199Z,97986.22
2023-10-05T14:39:28.476Z,97982.69
2023-10-05T14:42:13.892Z,97983.47
2023-10-05T14:44:59.510Z,97980.78
2023-10-05T14:47:44.928Z,97969.31
2023-10-05T14:50:30.320Z,97975.28
2023-10-05T14:53:15.900Z,97973.28
2023-10-05T14:56:01.437Z,97976.31
2023-10-05T14:58:47.006Z,97980.09
2023-10-05T15:01:32.377Z,97983.28
2023-10-05T15:04:17.823Z,97982.41
2023-10-05T15:07:03.389Z,97987.78
2023-10-05T15:09:48.914Z,97982.97
2023-10-05T15:12:34.495Z,97979.38
2023-10-05T15:15:20.135Z,97976.03
2023-10-05T15:18:05.622Z,97971.94
2023-10-05T15:20:51.144Z,97971.34
2023-10-05T15:23:36.804Z,97975.03
2023-10-05T15:26:22.278Z,97981.84
2023-10-05T15:29:08.262Z,97983.69
2023-10-05T15:31:54.113Z,97973.88
2023-10-05T15:34:39.602Z,97968.47
2023-10-05T15:37:25.140Z,97968.50
2023-10-05T15:40:10.634Z,97972.66
2023-10-05T15:42:56.060Z,97978.63
2023-10-05T15:45:41.655Z,97988.56
2023-10-05T15:48:27.144Z,97974.13
2023-10-05T15:51:12.501Z,97972.91
2023-10-05T15:53:59.008Z,97976.56
2023-10-05T15:56:45.322Z,97970.31
2023-10-05T15:59:32.409Z,97977.78
2023-10-05T16:02:19.235Z,97980.34
2023-10-05T16:05:07.509Z,97986.09
2023-10-05T16:07:52.904Z,97980.25
2023-10-05T16:10:38.520Z,97976.13
2023-10-05T16:13:23.916Z,97964.97
2023-10-05T16:16:09.460Z,97968.72
2023-10-05T16:18:54.984Z,97969.34
2023-10-05T16:21:40.796Z,97964.59
2023-10-05T16:24:26.012Z,97968.34
2023-10-05T16:27:11.501Z,97982.53
2023-10-05T16:29:56.978Z,97987.47
2023-10-05T16:32:42.480Z,97984.41
2023-10-05T16:35:27.833Z,97979.03
2023-10-05T16:38:13.057Z,97980.06
2023-10-05T16:40:58.650Z,97980.69
2023-10-05T16:43:44.329Z,97985.94
2023-10-05T16:46:29.872Z,97985.38
2023-10-05T16:49:15.282Z,97993.66
2023-10-05T16:52:00.796Z,97987.59
2023-10-05T16:54:46.193Z,97987.03
2023-10-05T16:57:31.674Z,97984.38
2023-10-05T17:00:17.341Z,97982.53
2023-10-05T17:03:02.654Z,97984.38
2023-10-05T17:05:48.217Z,97986.81
2023-10-05T17:08:33.606Z,97988.34
2023-10-05T17:11:18.615Z,97991.66
2023-10-05T17:14:04.221Z,98001.06
2023-10-05T17:16:49.715Z,97998.47
2023-10-05T17:19:35.210Z,97995.47
2023-10-05T17:22:20.834Z,97997.19
2023-10-05T17:25:06.403Z,98005.41
2023-10-05T17:27:51.846Z,98010.16
2023-10-05T17:30:37.215Z,98014.16
2023-10-05T17:33:22.746Z,98008.63
2023-10-05T17:36:08.340Z,98023.53
2023-10-05T17:38:53.372Z,98018.25
2023-10-05T17:41:38.425Z,98022.63
2023-10-05T17:44:23.953Z,98014.81
2023-10-05T17:47:08.999Z,98013.22
2023-10-05T17:49:54.033Z,98008.47
2023-10-05T17:52:39.715Z,98010.84
2023-10-05T17:58:09.625Z,98032.81
2023-10-05T18:00:55.147Z,98030.94
2023-10-05T18:03:40.705Z,98036.22
2023-10-05T18:06:26.397Z,98036.13
2023-10-05T18:09:11.988Z,98048.13
2023-10-05T18:11:57.460Z,98043.19
2023-10-05T18:14:42.433Z,98039.97
2023-10-05T18:17:28.131Z,98035.50
2023-10-05T18:20:13.534Z,98039.56
2023-10-05T18:22:59.716Z,98035.38
2023-10-05T18:25:45.237Z,98038.19
2023-10-05T18:28:30.564Z,98043.66
2023-10-05T18:31:16.098Z,98037.00
2023-10-05T18:34:01.481Z,98038.25
2023-10-05T18:36:46.998Z,98047.44
2023-10-05T18:39:32.565Z,98050.34
2023-10-05T18:42:17.785Z,98041.91
2023-10-05T18:45:03.018Z,98048.66
2023-10-05T18:47:48.927Z,98052.81
2023-10-05T18:50:34.470Z,98054.09
2023-10-05T18:53:19.990Z,98061.63
2023-10-05T18:56:05.288Z,98067.63
2023-10-05T18:58:50.252Z,98057.28
2023-10-05T19:01:35.709Z,98063.25
2023-10-05T19:04:21.203Z,98068.25
2023-10-05T19:07:06.786Z,98066.97
2023-10-05T19:09:52.232Z,98061.31
2023-10-05T19:12:37.325Z,98066.44
2023-10-05T19:15:22.917Z,98073.25
2023-10-05T19:18:07.803Z,98068.94
2023-10-05T19:20:53.235Z,98072.38
2023-10-05T19:23:38.634Z,98067.81
2023-10-05T19:26:23.773Z,98061.75
2023-10-05T19:29:09.247Z,98058.56
2023-10-05T19:31:54.417Z,98068.09
2023-10-05T19:34:40.023Z,98070.94
2023-10-05T19:37:25.305Z,98072.69
2023-10-05T19:40:10.965Z,98068.69
2023-10-05T19:42:56.439Z,98078.22
2023-10-05T19:45:41.828Z,98078.66
2023-10-05T19:48:27.167Z,98075.84
2023-10-05T19:51:12.792Z,98082.56
2023-10-05T19:53:58.360Z,98076.25
2023-10-05T19:56:43.449Z,98074.03
2023-10-05T19:59:29.004Z,98078.09
2023-10-05T20:02:14.500Z,98075.66
2023-10-05T20:04:59.861Z,98069.81
2023-10-05T20:07:45.412Z,98073.81
2023-10-05T20:10:31.026Z,98072.16
2023-10-05T20:13:16.410Z,98076.50
2023-10-05T20:16:01.649Z,98072.13
2023-10-05T20:18:47.285Z,98084.78
2023-10-05T20:21:32.744Z,98088.47
2023-10-05T20:24:18.126Z,98082.47
2023-10-05T20:27:03.700Z,98084.53
2023-10-05T20:29:49.073Z,98080.88
2023-10-05T20:32:34.303Z,98079.06
2023-10-05T20:35:19.697Z,98084.59
2023-10-05T20:38:05.400Z,98084.38
2023-10-05T20:40:50.880Z,98081.03
2023-10-05T20:43:36.206Z,98090.47
2023-10-05T20:46:21.764Z,98089.13
2023-10-05T20:49:07.309Z,98097.28
2023-10-05T20:51:52.696Z,98092.72
2023-10-05T20:54:37.749Z,98088.22
2023-10-05T20:57:23.265Z,98088.38
2023-10-05T21:00:08.894Z,98089.06
2023-10-05T21:02:54.379Z,98098.72
2023-10-05T21:05:39.869Z,98101.28
2023-10-05T21:08:25.315Z,98100.44
2023-10-05T21:11:10.316Z,98090.81
2023-10-05T21:13:55.420Z,98098.56
2023-10-05T21:16:40.833Z,98094.06
2023-10-05T21:19:26.345Z,98098.94
2023-10-05T21:22:11.738Z,98101.88
2023-10-05T21:24:57.153Z,98097.97
2023-10-05T21:27:42.661Z,98098.94
2023-10-05T21:30:28.142Z,98103.31
2023-10-05T21:33:13.644Z,98101.47
2023-10-05T21:35:59.185Z,98104.19
2023-10-05T21:38:44.747Z,98107.34
2023-10-05T21:41:30.236Z,98112.91
2023-10-05T21:44:15.811Z,98105.00
2023-10-05T21:47:01.327Z,98103.75
2023-10-05T21:49:46.767Z,98107.00
2023-10-05T21:52:32.234Z,98103.69
2023-10-05T21:55:17.306Z,98107.56
2023-10-05T21:58:02.898Z,98107.34
2023-10-05T22:00:48.514Z,98107.41
2023-10-05T22:03:33.999Z,98101.44
2023-10-05T22:06:19.978Z,98102.97
2023-10-05T22:09:05.675Z,98102.63
2023-10-05T22:11:51.137Z,98102.59
2023-10-05T22:14:36.651Z,98092.13
2023-10-05T22:17:22.056Z,98101.59
2023-10-05T22:20:07.581Z,98108.94
2023-10-05T22:22:53.066Z,98102.00
2023-10-05T22:25:38.704Z,98101.50
2023-10-05T22:28:24.243Z,98097.00
2023-10-05T22:31:09.079Z,98099.84
2023-10-05T22:33:54.441Z,98101.53
2023-10-05T22:36:39.909Z,98097.75
2023-10-05T22:39:25.032Z,98102.41
2023-10-05T22:42:10.251Z,98097.41
2023-10-05T22:44:55.844Z,98103.13
2023-10-05T22:47:40.873Z,98102.69
2023-10-05T22:50:26.223Z,98106.06
2023-10-05T22:53:11.329Z,98109.50
2023-10-05T22:55:56.287Z,98100.75
2023-10-05T22:58:41.723Z,98099.25
2023-10-05T23:01:27.287Z,98098.13
2023-10-05T23:04:12.650Z,98099.47
2023-10-05T23:06:57.735Z,98102.09
2023-10-05T23:09:42.695Z,98104.66
2023-10-05T23:12:27.738Z,98100.59
2023-10-05T23:15:13.251Z,98098.56
2023-10-05T23:17:58.432Z,98096.94
2023-10-05T23:20:44.160Z,98102.47
2023-10-05T23:23:29.622Z,98103.09
2023-10-05T23:26:15.227Z,98103.84
2023-10-05T23:29:00.719Z,98109.22
2023-10-05T23:31:46.388Z,98108.72
2023-10-05T23:34:31.864Z,98104.13
2023-10-05T23:37:17.267Z,98103.31
2023-10-05T23:40:02.280Z,98098.88
2023-10-05T23:42:47.290Z,98096.94
2023-10-05T23:45:32.934Z,98106.06
2023-10-05T23:48:17.882Z,98101.56
2023-10-05T23:51:03.472Z,98108.94
2023-10-05T23:53:48.509Z,98104.13
2023-10-05T23:56:33.557Z,98110.59
2023-10-05T23:59:19.201Z,98100.22
